Vb Braco — EAIN — position and weather

sailwx.info

Track history (hours):
 
Tides and Currents Weather Stations Pressure Air Temp Water Temp Dewpoint Dewpoint Depression Visibility Wind Speed Wind Dir Waves Ship Positions

Vb Braco

Last reported at 2017-Sep-17 18:23 UTC. Time now 2017-Sep-19 11:49 UTC.
Position N 36°10' W 005°23'.

Length 26 m; draft 5 m.

MMSI: 224624000.

Date/timePositionNaut miles runAvg speedWind from/ knotsBaromVisibWave heightAir tempDewpointWater temp
2017-Sep-17 18:23N 36°10' W 005°23'0 1.1
2017-Sep-17 17:59N 36°10' W 005°24'1 0.8
2017-Sep-17 17:21N 36°10' W 005°24'0 0.9
2017-Sep-17 16:54N 36°11' W 005°24'6 0.1
2017-Sep-15 14:04N 36°05' W 005°22'3 8.4
2017-Sep-15 13:42N 36°03' W 005°19'1 7.6
2017-Sep-15 13:30N 36°01' W 005°19'4 7.2
2017-Sep-15 13:01N 35°58' W 005°18'4 7.9
2017-Sep-15 12:31N 35°54' W 005°18'0 0.5
2017-Sep-15 12:00N 35°54' W 005°19'0 0.0
2017-Sep-15 11:31N 35°54' W 005°19'0 0.0
2017-Sep-15 11:01N 35°54' W 005°19'4 7.2
2017-Sep-15 10:30N 35°57' W 005°18'14 1.1
2017-Sep-14 21:42N 36°11' W 005°24'1 3.3
2017-Sep-14 21:30N 36°11' W 005°23'1 0.8
2017-Sep-14 19:50N 36°10' W 005°25'1 0.5
2017-Sep-14 18:15N 36°11' W 005°24'0 0.3
2017-Sep-14 17:56N 36°11' W 005°24'0 0.2
2017-Sep-14 17:24N 36°11' W 005°24'2 0.1
2017-Sep-13 22:54N 36°09' W 005°23'3 8.7
2017-Sep-13 22:30N 36°05' W 005°23'4 8.6
2017-Sep-13 22:00N 36°01' W 005°22'4 8.7
2017-Sep-13 21:30N 35°57' W 005°19'4 7.6
2017-Sep-13 21:00N 35°54' W 005°18'0 0.8
2017-Sep-13 20:31N 35°54' W 005°19'1 1.5
2017-Sep-13 20:00N 35°54' W 005°18'1 1.4
2017-Sep-13 19:30N 35°54' W 005°19'1 1.6
2017-Sep-13 19:01N 35°55' W 005°19'5 9.3
2017-Sep-13 18:30N 35°59' W 005°21'11 0.6
2017-Sep-13 00:02N 36°10' W 005°23'0 0.0
2017-Sep-12 16:47N 36°10' W 005°23'1 1.7
2017-Sep-12 16:15N 36°11' W 005°24'0 1.1
2017-Sep-12 15:59N 36°11' W 005°24'1 1.9
2017-Sep-12 15:26N 36°10' W 005°23'0 0.8
2017-Sep-12 14:59N 36°10' W 005°23'1 1.1
2017-Sep-12 14:30N 36°10' W 005°23'1 2.5
2017-Sep-12 13:58N 36°11' W 005°24'0 0.0
2017-Sep-12 10:54N 36°11' W 005°24'0 0.2
2017-Sep-12 10:11N 36°11' W 005°24'1 4.4
2017-Sep-12 09:57N 36°10' W 005°24'1 2.4
2017-Sep-12 09:30N 36°11' W 005°24'0 0.0
2017-Sep-12 09:00N 36°11' W 005°24'0 0.1
2017-Sep-12 08:21N 36°11' W 005°24'0 0.0
2017-Sep-12 07:55N 36°11' W 005°24'0 0.0
2017-Sep-12 06:58N 36°11' W 005°24'0 0.0
2017-Sep-12 06:29N 36°11' W 005°24'1 1.1
2017-Sep-12 05:19N 36°10' W 005°23'0 0.0
2017-Sep-12 05:00N 36°10' W 005°23'0 0.0
2017-Sep-12 04:28N 36°10' W 005°23'0 0.0
2017-Sep-12 03:53N 36°10' W 005°23'0 0.0
2017-Sep-12 03:30N 36°10' W 005°23'0 0.0
2017-Sep-12 03:00N 36°10' W 005°23'0 0.0
2017-Sep-12 02:29N 36°10' W 005°23'0 0.0
2017-Sep-12 01:46N 36°10' W 005°23'0 0.0
2017-Sep-12 00:49N 36°10' W 005°23'0 0.1
2017-Sep-12 00:30N 36°10' W 005°23'1 2.6
2017-Sep-12 00:00N 36°11' W 005°24'0 0.2
2017-Sep-11 23:31N 36°11' W 005°24'0 0.6
2017-Sep-11 23:01N 36°10' W 005°24'0 0.8
2017-Sep-11 22:31N 36°11' W 005°24'0 0.4
2017-Sep-11 22:00N 36°11' W 005°24'0 0.0
2017-Sep-11 21:31N 36°11' W 005°24'0 0.0
2017-Sep-11 21:01N 36°11' W 005°24'0 0.0
2017-Sep-11 20:30N 36°11' W 005°24'0 0.0
2017-Sep-11 20:01N 36°11' W 005°24'0 0.0
2017-Sep-11 19:30N 36°11' W 005°24'0 0.0
2017-Sep-11 19:00N 36°11' W 005°24'1 0.7
2017-Sep-11 18:15N 36°10' W 005°24'1 0.5
2017-Sep-11 16:01N 36°10' W 005°23'0 6.5
2017-Sep-11 16:01N 36°10' W 005°23'0 0.0
2017-Sep-11 05:53N 36°10' W 005°23'1 0.1
2017-Sep-10 21:35N 36°10' W 005°24'0 1.7
2017-Sep-10 21:30N 36°10' W 005°24'0 0.7
2017-Sep-10 20:59N 36°10' W 005°24'1 0.3
2017-Sep-10 18:58N 36°11' W 005°24'0 0.2
2017-Sep-10 18:30N 36°11' W 005°24'0 0.6
2017-Sep-10 17:53N 36°11' W 005°24'0 0.1
2017-Sep-10 13:47N 36°11' W 005°24'0 0.0
2017-Sep-09 14:48N 36°10' W 005°24'0 0.4
2017-Sep-09 14:17N 36°11' W 005°24'0 0.1
2017-Sep-09 12:45N 36°11' W 005°24'0 0.0
2017-Sep-09 12:28N 36°11' W 005°24'1 0.1
2017-Sep-09 00:55N 36°10' W 005°23'0 0.0
2017-Sep-09 00:24N 36°10' W 005°23'0 0.0
2017-Sep-09 00:00N 36°10' W 005°23'0 0.0
2017-Sep-08 22:55N 36°10' W 005°23'0 0.0
2017-Sep-08 21:50N 36°10' W 005°23'0 0.0
2017-Sep-08 21:30N 36°10' W 005°23'0 0.0
2017-Sep-08 21:00N 36°10' W 005°23'0 0.0
2017-Sep-08 20:31N 36°10' W 005°23'0 0.0
2017-Sep-08 20:00N 36°10' W 005°23'0 0.0
2017-Sep-08 18:49N 36°10' W 005°23'1 4.1
2017-Sep-08 18:31N 36°11' W 005°24'1 0.1
2017-Sep-08 13:11N 36°10' W 005°25'2 0.2
2017-Sep-08 05:45N 36°10' W 005°23'1 3.5
2017-Sep-08 05:23N 36°11' W 005°24'0 0.0
2017-Sep-08 04:59N 36°11' W 005°24'0 0.0
2017-Sep-08 04:19N 36°11' W 005°24'0 0.0
2017-Sep-08 03:05N 36°11' W 005°24'0 0.1
2017-Sep-08 03:00N 36°11' W 005°24'0 0.0
2017-Sep-08 02:30N 36°11' W 005°24'0 0.0
2017-Sep-08 01:58N 36°11' W 005°24'0 0.0
2017-Sep-08 01:30N 36°11' W 005°24'0 0.4
2017-Sep-08 00:57N 36°11' W 005°24'0 0.3
2017-Sep-08 00:18N 36°11' W 005°24'1 2.7
2017-Sep-08 00:00N 36°10' W 005°24'1 0.4
2017-Sep-07 21:54N 36°11' W 005°24'0 0.1
2017-Sep-07 21:28N 36°11' W 005°24'0 0.5
2017-Sep-07 20:59N 36°11' W 005°24'1 1.9
2017-Sep-07 20:31N 36°11' W 005°25'0 0.1
2017-Sep-07 20:00N 36°11' W 005°25'0 0.0
2017-Sep-07 19:30N 36°11' W 005°25'  
Track history (hours):
 
Tides and Currents Weather Stations Pressure Air Temp Water Temp Dewpoint Dewpoint Depression Visibility Wind Speed Wind Dir Waves Ship Positions

Vb Braco

Last reported at 2017-Sep-17 18:23 UTC. Time now 2017-Sep-19 11:49 UTC.
Position N 36°10' W 005°23'.

Length 26 m; draft 5 m.

MMSI: 224624000.

Date/timePositionNaut miles runAvg speedWind from/ knotsBaromVisibWave heightAir tempDewpointWater temp
2017-Sep-17 18:23N 36°10' W 005°23'0 1.1
2017-Sep-17 17:59N 36°10' W 005°24'1 0.8
2017-Sep-17 17:21N 36°10' W 005°24'0 0.9
2017-Sep-17 16:54N 36°11' W 005°24'6 0.1
2017-Sep-15 14:04N 36°05' W 005°22'3 8.4
2017-Sep-15 13:42N 36°03' W 005°19'1 7.6
2017-Sep-15 13:30N 36°01' W 005°19'4 7.2
2017-Sep-15 13:01N 35°58' W 005°18'4 7.9
2017-Sep-15 12:31N 35°54' W 005°18'0 0.5
2017-Sep-15 12:00N 35°54' W 005°19'0 0.0
2017-Sep-15 11:31N 35°54' W 005°19'0 0.0
2017-Sep-15 11:01N 35°54' W 005°19'4 7.2
2017-Sep-15 10:30N 35°57' W 005°18'14 1.1
2017-Sep-14 21:42N 36°11' W 005°24'1 3.3
2017-Sep-14 21:30N 36°11' W 005°23'1 0.8
2017-Sep-14 19:50N 36°10' W 005°25'1 0.5
2017-Sep-14 18:15N 36°11' W 005°24'0 0.3
2017-Sep-14 17:56N 36°11' W 005°24'0 0.2
2017-Sep-14 17:24N 36°11' W 005°24'2 0.1
2017-Sep-13 22:54N 36°09' W 005°23'3 8.7
2017-Sep-13 22:30N 36°05' W 005°23'4 8.6
2017-Sep-13 22:00N 36°01' W 005°22'4 8.7
2017-Sep-13 21:30N 35°57' W 005°19'4 7.6
2017-Sep-13 21:00N 35°54' W 005°18'0 0.8
2017-Sep-13 20:31N 35°54' W 005°19'1 1.5
2017-Sep-13 20:00N 35°54' W 005°18'1 1.4
2017-Sep-13 19:30N 35°54' W 005°19'1 1.6
2017-Sep-13 19:01N 35°55' W 005°19'5 9.3
2017-Sep-13 18:30N 35°59' W 005°21'11 0.6
2017-Sep-13 00:02N 36°10' W 005°23'0 0.0
2017-Sep-12 16:47N 36°10' W 005°23'1 1.7
2017-Sep-12 16:15N 36°11' W 005°24'0 1.1
2017-Sep-12 15:59N 36°11' W 005°24'1 1.9
2017-Sep-12 15:26N 36°10' W 005°23'0 0.8
2017-Sep-12 14:59N 36°10' W 005°23'1 1.1
2017-Sep-12 14:30N 36°10' W 005°23'1 2.5
2017-Sep-12 13:58N 36°11' W 005°24'0 0.0
2017-Sep-12 10:54N 36°11' W 005°24'0 0.2
2017-Sep-12 10:11N 36°11' W 005°24'1 4.4
2017-Sep-12 09:57N 36°10' W 005°24'1 2.4
2017-Sep-12 09:30N 36°11' W 005°24'0 0.0
2017-Sep-12 09:00N 36°11' W 005°24'0 0.1
2017-Sep-12 08:21N 36°11' W 005°24'0 0.0
2017-Sep-12 07:55N 36°11' W 005°24'0 0.0
2017-Sep-12 06:58N 36°11' W 005°24'0 0.0
2017-Sep-12 06:29N 36°11' W 005°24'1 1.1
2017-Sep-12 05:19N 36°10' W 005°23'0 0.0
2017-Sep-12 05:00N 36°10' W 005°23'0 0.0
2017-Sep-12 04:28N 36°10' W 005°23'0 0.0
2017-Sep-12 03:53N 36°10' W 005°23'0 0.0
2017-Sep-12 03:30N 36°10' W 005°23'0 0.0
2017-Sep-12 03:00N 36°10' W 005°23'0 0.0
2017-Sep-12 02:29N 36°10' W 005°23'0 0.0
2017-Sep-12 01:46N 36°10' W 005°23'0 0.0
2017-Sep-12 00:49N 36°10' W 005°23'0 0.1
2017-Sep-12 00:30N 36°10' W 005°23'1 2.6
2017-Sep-12 00:00N 36°11' W 005°24'0 0.2
2017-Sep-11 23:31N 36°11' W 005°24'0 0.6
2017-Sep-11 23:01N 36°10' W 005°24'0 0.8
2017-Sep-11 22:31N 36°11' W 005°24'0 0.4
2017-Sep-11 22:00N 36°11' W 005°24'0 0.0
2017-Sep-11 21:31N 36°11' W 005°24'0 0.0
2017-Sep-11 21:01N 36°11' W 005°24'0 0.0
2017-Sep-11 20:30N 36°11' W 005°24'0 0.0
2017-Sep-11 20:01N 36°11' W 005°24'0 0.0
2017-Sep-11 19:30N 36°11' W 005°24'0 0.0
2017-Sep-11 19:00N 36°11' W 005°24'1 0.7
2017-Sep-11 18:15N 36°10' W 005°24'1 0.5
2017-Sep-11 16:01N 36°10' W 005°23'0 6.5
2017-Sep-11 16:01N 36°10' W 005°23'0 0.0
2017-Sep-11 05:53N 36°10' W 005°23'1 0.1
2017-Sep-10 21:35N 36°10' W 005°24'0 1.7
2017-Sep-10 21:30N 36°10' W 005°24'0 0.7
2017-Sep-10 20:59N 36°10' W 005°24'1 0.3
2017-Sep-10 18:58N 36°11' W 005°24'0 0.2
2017-Sep-10 18:30N 36°11' W 005°24'0 0.6
2017-Sep-10 17:53N 36°11' W 005°24'0 0.1
2017-Sep-10 13:47N 36°11' W 005°24'0 0.0
2017-Sep-09 14:48N 36°10' W 005°24'0 0.4
2017-Sep-09 14:17N 36°11' W 005°24'0 0.1
2017-Sep-09 12:45N 36°11' W 005°24'0 0.0
2017-Sep-09 12:28N 36°11' W 005°24'1 0.1
2017-Sep-09 00:55N 36°10' W 005°23'0 0.0
2017-Sep-09 00:24N 36°10' W 005°23'0 0.0
2017-Sep-09 00:00N 36°10' W 005°23'0 0.0
2017-Sep-08 22:55N 36°10' W 005°23'0 0.0
2017-Sep-08 21:50N 36°10' W 005°23'0 0.0
2017-Sep-08 21:30N 36°10' W 005°23'0 0.0
2017-Sep-08 21:00N 36°10' W 005°23'0 0.0
2017-Sep-08 20:31N 36°10' W 005°23'0 0.0
2017-Sep-08 20:00N 36°10' W 005°23'0 0.0
2017-Sep-08 18:49N 36°10' W 005°23'1 4.1
2017-Sep-08 18:31N 36°11' W 005°24'1 0.1
2017-Sep-08 13:11N 36°10' W 005°25'2 0.2
2017-Sep-08 05:45N 36°10' W 005°23'1 3.5
2017-Sep-08 05:23N 36°11' W 005°24'0 0.0
2017-Sep-08 04:59N 36°11' W 005°24'0 0.0
2017-Sep-08 04:19N 36°11' W 005°24'0 0.0
2017-Sep-08 03:05N 36°11' W 005°24'0 0.1
2017-Sep-08 03:00N 36°11' W 005°24'0 0.0
2017-Sep-08 02:30N 36°11' W 005°24'0 0.0
2017-Sep-08 01:58N 36°11' W 005°24'0 0.0
2017-Sep-08 01:30N 36°11' W 005°24'0 0.4
2017-Sep-08 00:57N 36°11' W 005°24'0 0.3
2017-Sep-08 00:18N 36°11' W 005°24'1 2.7
2017-Sep-08 00:00N 36°10' W 005°24'1 0.4
2017-Sep-07 21:54N 36°11' W 005°24'0 0.1
2017-Sep-07 21:28N 36°11' W 005°24'0 0.5
2017-Sep-07 20:59N 36°11' W 005°24'1 1.9
2017-Sep-07 20:31N 36°11' W 005°25'0 0.1
2017-Sep-07 20:00N 36°11' W 005°25'0 0.0
2017-Sep-07 19:30N 36°11' W 005°25'  

Dump ship's entire track history